Hovedside
METAR-TAF:

METAR-TAF

Lufthavner :

Berlin

Berliini, Tyskland

breddegrad: 52-34N, lengdegrad: 013-19E, høyde over havet: 37 m

Gjeldene værobservasjon

Denne rapporten ble laget for 16 minutter siden, klokken 15:20 UTC
Vind 12 kt fra Vest-sørvest, skiftende mellom Sørvest og Vest
Temperatur 29°C
Luftfuktighet 31%
Trykk 1014 hPa
Sikt 10 km eller mer
ingen skyer under 1500 m og ingen bygeskyer

METAR: EDDT 201520Z 25012KT 220V280 CAVOK 29/10 Q1014 NOSIG

Tid: 17:36 (15:36 UTC)

Varsel

Denne rapporten ble laget for 4 timer og 36 minutter siden, klokken 11:00 UTC
Varsel gyldig fra 20. klokken 12 UTC til 21. klokken 12 UTC
Vind 9 kt fra Sørvest
Sikt 10 km eller mer
ingen skyer under 1500 m og ingen bygeskyer
Blir
fra 20. klokken 17 UTC til 20. klokken 19 UTC
Vind 5 kt fra Sør
Blir
fra 21. klokken 06 UTC til 21. klokken 08 UTC
Vind 15 kt fra Sør-sørvest med vindkast opp mot 25 kt

TAF: EDDT 201100Z 2012/2112 23009KT CAVOK BECMG 2017/2019 17005KT BECMG 2106/2108 20015G25KT

Værobservasjoner og værvarsel for over 4000 flyplasser (METAR- og TAF-rapporter).

Tilgjengelige stasjoner er representert av de røde og gule prikkene på kartet.

Hold musepekeren over prikken for å se navnet på stasjonen.

Klikk så for å se værobservasjoner og -varsler.

For å forandre kartet kan du klikke på den grønne knappen med svart kryss for å zoome inn, på den grønne knappen med strek for å zoome ut, eller på de grønne pilene for å se tilstøtende kart.


METAR-TAF: